Time;durP1;ratioP1;P1;durP2;ratioP2;P2;SDS_P1;SDS_P2;PMS_P1;PMS_P2;Temp;Humidity;BMP_temperature;BMP_pressure;BME280_temperature;BME280_humidity;BME280_pressure;Samples;Min_cycle;Max_cycle;Signal;HPM_P1;HPM_P2
2023/08/27 00:01:48;;;;;;;8.32;5.10;;;12.00;99.90;;;;;;4901017;29;20443;-68
2023/08/27 00:04:14;;;;;;;8.90;6.15;;;12.00;99.90;;;;;;4912381;29;20032;-69
2023/08/27 00:06:39;;;;;;;11.50;7.10;;;12.00;99.90;;;;;;4885469;29;20064;-68
2023/08/27 00:09:06;;;;;;;14.98;8.82;;;11.90;99.90;;;;;;4896052;29;20072;-69
2023/08/27 00:11:32;;;;;;;12.73;7.13;;;11.90;99.90;;;;;;4901588;29;20024;-68
2023/08/27 00:13:57;;;;;;;12.57;7.05;;;11.90;99.90;;;;;;4900359;29;20510;-68
2023/08/27 00:16:23;;;;;;;9.18;5.57;;;11.90;99.90;;;;;;4902674;29;20058;-68
2023/08/27 00:18:49;;;;;;;12.15;6.55;;;11.80;99.90;;;;;;4898293;29;20055;-68
2023/08/27 00:21:14;;;;;;;12.10;6.93;;;11.80;99.90;;;;;;4902149;29;20032;-68
2023/08/27 00:23:40;;;;;;;9.50;6.53;;;11.80;99.90;;;;;;4900617;29;20307;-68
2023/08/27 00:26:05;;;;;;;8.25;5.43;;;11.70;99.90;;;;;;4899552;29;20221;-68
2023/08/27 00:28:31;;;;;;;11.80;6.50;;;11.70;99.90;;;;;;4914467;29;20492;-68
2023/08/27 00:31:02;;;;;;;10.63;7.45;;;11.60;99.90;;;;;;4903130;29;20032;-68
2023/08/27 00:33:27;;;;;;;13.02;8.30;;;11.60;99.90;;;;;;4901296;29;20182;-68
2023/08/27 00:35:53;;;;;;;13.73;8.80;;;11.60;99.90;;;;;;4904235;29;20523;-68
2023/08/27 00:38:19;;;;;;;13.63;8.40;;;11.60;99.90;;;;;;4904043;29;20032;-68
2023/08/27 00:40:45;;;;;;;9.65;6.88;;;11.50;99.90;;;;;;4905544;29;20516;-68
2023/08/27 00:43:10;;;;;;;17.95;8.57;;;11.60;99.90;;;;;;4900912;29;20077;-67
2023/08/27 00:45:36;;;;;;;12.35;8.13;;;11.60;99.90;;;;;;4903854;29;20514;-68
2023/08/27 00:48:03;;;;;;;12.68;7.40;;;11.60;99.90;;;;;;4903135;29;20044;-68
2023/08/27 00:50:30;;;;;;;11.57;7.97;;;11.60;99.90;;;;;;4904884;29;20036;-67
2023/08/27 00:52:56;;;;;;;9.75;5.80;;;11.60;99.90;;;;;;4900869;29;20349;-68
2023/08/27 00:55:22;;;;;;;9.10;5.40;;;11.60;99.90;;;;;;4898793;29;20461;-68
2023/08/27 00:57:49;;;;;;;12.18;5.32;;;11.60;99.90;;;;;;4910332;29;20202;-68
2023/08/27 01:00:15;;;;;;;9.38;5.55;;;11.50;99.90;;;;;;4905319;29;20111;-68
2023/08/27 01:02:42;;;;;;;10.38;6.90;;;11.50;99.90;;;;;;4901171;29;20048;-68
2023/08/27 01:05:08;;;;;;;10.35;6.00;;;11.40;99.90;;;;;;4898395;29;20271;-68
2023/08/27 01:08:17;;;;;;;12.30;6.38;;;11.40;99.90;;;;;;4902483;29;20504;-67
2023/08/27 01:11:02;;;;;;;10.32;6.32;;;11.40;99.90;;;;;;4900985;29;20028;-68
2023/08/27 01:13:46;;;;;;;11.43;6.93;;;11.30;99.90;;;;;;4903034;29;20645;-68
2023/08/27 01:16:13;;;;;;;12.48;7.03;;;11.30;99.90;;;;;;4897286;29;20032;-68
2023/08/27 01:18:39;;;;;;;9.38;6.55;;;11.30;99.90;;;;;;4898592;29;20043;-67
2023/08/27 01:21:24;;;;;;;10.93;7.13;;;11.30;99.90;;;;;;4902712;29;20051;-68
2023/08/27 01:23:50;;;;;;;11.27;6.35;;;11.20;99.90;;;;;;4897622;29;20103;-67
2023/08/27 01:26:35;;;;;;;13.27;6.55;;;11.20;99.90;;;;;;4916577;29;20038;-68
2023/08/27 01:29:07;;;;;;;10.73;6.18;;;11.20;99.90;;;;;;4903106;29;20615;-68
2023/08/27 01:31:39;;;;;;;10.57;5.70;;;11.10;99.90;;;;;;4899458;29;20033;-68
2023/08/27 01:34:08;;;;;;;10.57;5.57;;;11.10;99.90;;;;;;4888025;29;20542;-68
2023/08/27 01:36:35;;;;;;;11.02;5.30;;;11.10;99.90;;;;;;4897055;29;20099;-68
2023/08/27 01:39:03;;;;;;;8.30;4.30;;;11.00;99.90;;;;;;4899441;29;20032;-67
2023/08/27 01:41:29;;;;;;;8.60;4.65;;;11.00;99.90;;;;;;4902205;29;20199;-68
2023/08/27 01:43:54;;;;;;;6.40;3.63;;;11.00;99.90;;;;;;4903801;29;20048;-68
2023/08/27 01:46:20;;;;;;;9.77;3.97;;;10.90;99.90;;;;;;4903286;29;20380;-68
2023/08/27 01:48:46;;;;;;;5.70;2.38;;;10.90;99.90;;;;;;4905998;29;20087;-68
2023/08/27 01:51:12;;;;;;;3.97;1.98;;;10.90;99.90;;;;;;4891316;29;20555;-68
2023/08/27 01:53:37;;;;;;;4.78;1.92;;;10.90;99.90;;;;;;4897103;29;20043;-68
2023/08/27 01:56:05;;;;;;;3.63;1.90;;;10.90;99.90;;;;;;4898759;29;20030;-68
2023/08/27 01:58:31;;;;;;;3.65;2.08;;;10.90;99.90;;;;;;4899344;29;20308;-68
2023/08/27 02:00:56;;;;;;;3.35;2.00;;;10.90;99.90;;;;;;4917291;29;20058;-67
2023/08/27 02:03:22;;;;;;;4.82;2.22;;;10.90;99.90;;;;;;4902351;29;20488;-68
2023/08/27 02:05:48;;;;;;;7.38;2.38;;;10.90;99.90;;;;;;4900395;29;20060;-68
2023/08/27 02:08:14;;;;;;;8.00;2.28;;;11.00;99.90;;;;;;4901242;29;20066;-68
2023/08/27 02:10:39;;;;;;;2.63;2.30;;;11.00;99.90;;;;;;4900199;29;20493;-68
2023/08/27 02:13:05;;;;;;;4.85;2.63;;;11.00;99.90;;;;;;4916753;29;20491;-68
2023/08/27 02:15:30;;;;;;;5.40;2.38;;;11.00;99.90;;;;;;4902848;29;20528;-68
2023/08/27 02:17:56;;;;;;;3.83;1.90;;;10.90;99.90;;;;;;4909541;29;20028;-68
2023/08/27 02:20:21;;;;;;;4.32;2.10;;;10.90;99.90;;;;;;4901280;29;20039;-68
2023/08/27 02:22:47;;;;;;;3.90;2.15;;;10.90;99.90;;;;;;4902226;29;20044;-68
2023/08/27 02:25:13;;;;;;;2.78;1.70;;;11.00;99.90;;;;;;4902614;29;20080;-68
2023/08/27 02:27:38;;;;;;;4.95;2.13;;;10.90;99.90;;;;;;4911206;29;20099;-68
2023/08/27 02:30:05;;;;;;;3.47;2.13;;;10.90;99.90;;;;;;4906854;29;20028;-68
2023/08/27 02:32:31;;;;;;;5.53;2.00;;;10.90;99.90;;;;;;4898131;29;20232;-68
2023/08/27 02:34:56;;;;;;;5.03;2.22;;;11.00;99.90;;;;;;4907776;29;20393;-68
2023/08/27 02:37:22;;;;;;;5.28;2.50;;;11.00;99.90;;;;;;4899636;29;20051;-68
2023/08/27 02:39:48;;;;;;;5.68;2.85;;;11.00;99.90;;;;;;4891561;29;20495;-68
2023/08/27 02:42:13;;;;;;;6.65;2.88;;;11.00;99.90;;;;;;4896428;29;20648;-68
2023/08/27 02:44:39;;;;;;;4.13;2.47;;;11.00;99.90;;;;;;4895587;29;20036;-68
2023/08/27 02:47:05;;;;;;;3.60;2.25;;;11.00;99.90;;;;;;4911574;29;20098;-68
2023/08/27 02:49:30;;;;;;;5.28;2.70;;;11.00;99.90;;;;;;4898063;29;20032;-68
2023/08/27 02:51:56;;;;;;;7.32;3.85;;;11.00;99.90;;;;;;4909324;29;20119;-68
2023/08/27 02:54:22;;;;;;;7.38;5.05;;;11.00;99.90;;;;;;4902908;29;20051;-68
2023/08/27 02:56:47;;;;;;;10.73;6.35;;;11.00;99.90;;;;;;4906433;29;20554;-68
2023/08/27 02:59:13;;;;;;;13.45;7.60;;;11.00;99.90;;;;;;4903115;29;20499;-68
2023/08/27 03:01:38;;;;;;;9.38;5.82;;;11.00;99.90;;;;;;4900995;29;20483;-70
2023/08/27 03:04:04;;;;;;;11.05;5.75;;;11.00;99.90;;;;;;4899793;29;20104;-68
2023/08/27 03:06:30;;;;;;;6.28;3.85;;;11.00;99.90;;;;;;4899787;29;20357;-68
2023/08/27 03:08:55;;;;;;;6.25;3.47;;;10.90;99.90;;;;;;4909405;29;20647;-70
2023/08/27 03:11:21;;;;;;;9.77;3.95;;;10.90;99.90;;;;;;4902562;29;20314;-68
2023/08/27 03:13:48;;;;;;;6.72;3.47;;;10.90;99.90;;;;;;4898206;29;20105;-68
2023/08/27 03:16:13;;;;;;;6.75;3.53;;;10.90;99.90;;;;;;4898444;29;20032;-68
2023/08/27 03:18:39;;;;;;;5.88;2.72;;;10.90;99.90;;;;;;4900884;29;20040;-68
2023/08/27 03:21:05;;;;;;;5.80;2.10;;;10.80;99.90;;;;;;4899656;29;20032;-68
2023/08/27 03:23:34;;;;;;;6.75;2.13;;;10.80;99.90;;;;;;4900602;29;20384;-68
2023/08/27 03:25:59;;;;;;;3.20;1.80;;;10.80;99.90;;;;;;4898182;29;20488;-68
2023/08/27 03:28:25;;;;;;;2.17;1.70;;;10.80;99.90;;;;;;4904094;29;20100;-68
2023/08/27 03:30:51;;;;;;;3.63;1.80;;;10.80;99.90;;;;;;4902804;29;20515;-68
2023/08/27 03:33:16;;;;;;;3.70;1.98;;;10.80;99.90;;;;;;4901649;29;20040;-68
2023/08/27 03:35:51;;;;;;;2.60;2.00;;;10.80;99.90;;;;;;4899899;29;20443;-68
2023/08/27 03:38:16;;;;;;;3.28;2.28;;;10.70;99.90;;;;;;4895817;29;20402;-68
2023/08/27 03:40:48;;;;;;;6.72;2.47;;;10.70;99.90;;;;;;4897476;29;20512;-68
2023/08/27 03:43:13;;;;;;;6.40;3.50;;;10.70;99.90;;;;;;4902098;29;20048;-68
2023/08/27 03:45:39;;;;;;;4.50;3.33;;;10.70;99.90;;;;;;4899678;29;20269;-68
2023/08/27 03:48:04;;;;;;;6.97;3.88;;;10.70;99.90;;;;;;4900256;29;20592;-68
2023/08/27 03:50:31;;;;;;;6.38;3.55;;;10.70;99.90;;;;;;4896898;29;20032;-68
2023/08/27 03:52:57;;;;;;;7.20;3.55;;;10.70;99.90;;;;;;4896690;29;20036;-68
2023/08/27 03:55:23;;;;;;;6.40;3.20;;;10.60;99.90;;;;;;4902388;29;20035;-68
2023/08/27 03:57:49;;;;;;;6.13;2.70;;;10.60;99.90;;;;;;4899382;29;20437;-68
2023/08/27 04:00:15;;;;;;;6.72;2.85;;;10.60;99.90;;;;;;4900201;29;20047;-68
2023/08/27 04:02:41;;;;;;;7.22;3.10;;;10.60;99.90;;;;;;4901175;29;20040;-67
2023/08/27 04:05:07;;;;;;;8.65;4.93;;;10.60;99.90;;;;;;4897305;29;20115;-68
2023/08/27 04:07:33;;;;;;;9.13;5.88;;;10.60;99.90;;;;;;4900142;29;20493;-70
2023/08/27 04:09:59;;;;;;;14.07;7.78;;;10.60;99.90;;;;;;4895450;29;20496;-68
2023/08/27 04:12:24;;;;;;;13.23;9.35;;;10.60;99.90;;;;;;4902681;29;20321;-68
2023/08/27 04:14:50;;;;;;;15.77;9.48;;;10.50;99.90;;;;;;4898338;29;20088;-67
2023/08/27 04:17:15;;;;;;;17.40;10.65;;;10.50;99.90;;;;;;4896911;29;20036;-69
2023/08/27 04:19:41;;;;;;;21.77;11.50;;;10.50;99.90;;;;;;4893779;29;20462;-69
2023/08/27 04:22:07;;;;;;;19.80;11.80;;;10.50;99.90;;;;;;4912521;29;20044;-70
2023/08/27 04:24:32;;;;;;;16.70;11.13;;;10.50;99.90;;;;;;4898195;29;20028;-69
2023/08/27 04:26:58;;;;;;;19.60;12.32;;;10.40;99.90;;;;;;4895573;29;20115;-69
2023/08/27 04:29:24;;;;;;;18.08;12.32;;;10.40;99.90;;;;;;4895161;29;20079;-69
2023/08/27 04:31:50;;;;;;;18.17;11.45;;;10.40;99.90;;;;;;4897615;29;20346;-69
2023/08/27 04:34:15;;;;;;;19.90;11.70;;;10.40;99.90;;;;;;4907890;29;20519;-69
2023/08/27 04:36:41;;;;;;;19.08;11.40;;;10.30;99.90;;;;;;4896171;29;20042;-69
2023/08/27 04:39:08;;;;;;;18.02;11.07;;;10.20;99.90;;;;;;4896780;29;20463;-70
2023/08/27 04:41:34;;;;;;;20.65;12.88;;;10.20;99.90;;;;;;4897178;29;20289;-69
2023/08/27 04:43:59;;;;;;;21.08;13.07;;;10.20;99.90;;;;;;4905426;29;20221;-70
2023/08/27 04:46:25;;;;;;;19.77;12.10;;;10.20;99.90;;;;;;4918364;29;20048;-70
2023/08/27 04:48:51;;;;;;;18.20;11.55;;;10.20;99.90;;;;;;4899099;29;20039;-69
2023/08/27 04:51:16;;;;;;;16.92;11.57;;;10.20;99.90;;;;;;4899347;29;20032;-69
2023/08/27 04:53:42;;;;;;;18.60;12.50;;;10.20;99.90;;;;;;4896719;29;20345;-69
2023/08/27 04:56:08;;;;;;;17.38;10.75;;;10.10;99.90;;;;;;4895466;29;20035;-69
2023/08/27 04:58:33;;;;;;;15.95;10.38;;;10.10;99.90;;;;;;4900938;29;20036;-69
2023/08/27 05:00:59;;;;;;;14.15;8.95;;;10.20;99.90;;;;;;4898516;29;20107;-70
2023/08/27 05:03:25;;;;;;;14.25;8.70;;;10.20;99.90;;;;;;4899538;29;20110;-69
2023/08/27 05:05:53;;;;;;;15.23;9.07;;;10.20;99.90;;;;;;4899859;29;20031;-69
2023/08/27 05:08:19;;;;;;;13.23;7.80;;;10.20;99.90;;;;;;4901423;29;20056;-70
2023/08/27 05:10:45;;;;;;;14.68;9.52;;;10.10;99.90;;;;;;4900617;29;20171;-69
2023/08/27 05:13:10;;;;;;;16.35;9.45;;;10.10;99.90;;;;;;4897663;29;20032;-69
2023/08/27 05:15:36;;;;;;;12.65;8.38;;;10.00;99.90;;;;;;4904349;29;20040;-69
2023/08/27 05:18:03;;;;;;;14.45;8.40;;;10.00;99.90;;;;;;4905564;29;20043;-69
2023/08/27 05:20:28;;;;;;;12.55;7.57;;;10.00;99.90;;;;;;4902906;29;20218;-69
2023/08/27 05:22:54;;;;;;;10.10;7.63;;;10.00;99.90;;;;;;4902625;29;20068;-69
2023/08/27 05:25:19;;;;;;;13.93;8.57;;;10.00;99.90;;;;;;4901187;29;20188;-70
2023/08/27 05:27:45;;;;;;;10.32;7.22;;;10.00;99.90;;;;;;4899297;29;20447;-70
2023/08/27 05:30:14;;;;;;;4.43;3.10;;;10.10;99.90;;;;;;4901611;29;20031;-69
2023/08/27 05:32:40;;;;;;;4.25;2.30;;;10.20;99.90;;;;;;4900889;29;20028;-69
2023/08/27 05:35:06;;;;;;;3.95;1.98;;;10.20;99.90;;;;;;4899417;29;20496;-70
2023/08/27 05:37:32;;;;;;;4.70;2.50;;;10.30;99.90;;;;;;4899444;29;20071;-70
2023/08/27 05:39:58;;;;;;;4.57;2.80;;;10.30;99.90;;;;;;4886452;29;20111;-69
2023/08/27 05:42:24;;;;;;;2.72;1.77;;;10.40;99.90;;;;;;4900396;29;20079;-69
2023/08/27 05:44:49;;;;;;;5.45;3.10;;;10.50;99.90;;;;;;4911124;29;20075;-69
2023/08/27 05:47:17;;;;;;;4.47;3.00;;;10.60;99.90;;;;;;4918291;29;20087;-69
2023/08/27 05:49:43;;;;;;;3.67;2.28;;;10.60;99.90;;;;;;4913790;29;20036;-69
2023/08/27 05:52:09;;;;;;;3.45;2.08;;;10.70;99.90;;;;;;4901191;29;20024;-69
2023/08/27 05:54:34;;;;;;;3.80;1.58;;;10.80;99.90;;;;;;4905981;29;20212;-69
2023/08/27 05:57:00;;;;;;;4.03;1.50;;;10.90;99.90;;;;;;4897842;29;20032;-69
2023/08/27 05:59:26;;;;;;;2.95;1.92;;;11.00;99.90;;;;;;4914533;29;20039;-69
2023/08/27 06:01:51;;;;;;;4.45;1.70;;;11.10;99.90;;;;;;4901230;29;20031;-69
2023/08/27 06:04:17;;;;;;;2.30;1.40;;;11.20;99.90;;;;;;4900220;29;20024;-69
2023/08/27 06:06:42;;;;;;;2.40;1.30;;;11.30;99.90;;;;;;4900161;29;20058;-69
2023/08/27 06:09:08;;;;;;;2.40;1.40;;;11.40;99.90;;;;;;4900000;29;20028;-69
2023/08/27 06:11:34;;;;;;;37.13;19.88;;;11.50;99.90;;;;;;4926182;29;20035;-69
2023/08/27 06:13:59;;;;;;;21.25;10.77;;;11.60;99.90;;;;;;4908587;29;20043;-70
2023/08/27 06:16:25;;;;;;;5.53;2.90;;;11.80;99.90;;;;;;4908111;29;20031;-69
2023/08/27 06:18:50;;;;;;;4.28;1.42;;;11.80;99.90;;;;;;4913157;29;20527;-69
2023/08/27 06:21:17;;;;;;;1.48;1.20;;;11.90;99.90;;;;;;4900087;29;20513;-69
2023/08/27 06:23:43;;;;;;;2.95;1.25;;;12.00;99.90;;;;;;4900357;29;20893;-69
2023/08/27 06:26:09;;;;;;;399.30;200.50;;;12.10;99.90;;;;;;4920860;29;20426;-70
2023/08/27 06:28:34;;;;;;;70.13;33.60;;;12.20;99.90;;;;;;4902370;29;20170;-69
2023/08/27 06:31:00;;;;;;;4.13;2.45;;;12.20;99.90;;;;;;4898237;29;20032;-70
2023/08/27 06:33:26;;;;;;;3.15;1.80;;;12.40;99.90;;;;;;4900947;29;20103;-69
2023/08/27 06:35:52;;;;;;;5.30;3.60;;;12.40;99.90;;;;;;4898428;29;20060;-69
2023/08/27 06:38:18;;;;;;;4.13;2.53;;;12.40;99.90;;;;;;4901820;29;20060;-69
2023/08/27 06:40:43;;;;;;;4.18;1.80;;;12.50;99.90;;;;;;4899585;29;20043;-70
2023/08/27 06:43:10;;;;;;;62.05;30.35;;;12.60;99.90;;;;;;4901471;29;20432;-70
2023/08/27 06:45:35;;;;;;;8.30;5.60;;;12.60;99.90;;;;;;4900788;29;20460;-69
2023/08/27 06:48:01;;;;;;;6.45;3.70;;;12.70;99.90;;;;;;4897026;29;20052;-69
2023/08/27 06:50:27;;;;;;;8.50;5.25;;;12.70;99.90;;;;;;4898441;29;20531;-69
2023/08/27 06:52:52;;;;;;;9.13;5.35;;;12.80;99.90;;;;;;4898370;29;20040;-70
2023/08/27 06:55:18;;;;;;;7.72;5.00;;;12.80;99.90;;;;;;4896032;29;20866;-70
2023/08/27 06:57:43;;;;;;;213.40;119.00;;;12.90;99.90;;;;;;4892220;29;20039;-70
2023/08/27 07:00:12;;;;;;;25.98;14.68;;;13.00;99.90;;;;;;4884864;29;20110;-70
2023/08/27 07:02:38;;;;;;;4.22;1.70;;;13.00;99.90;;;;;;4882659;29;20044;-70
2023/08/27 07:05:10;;;;;;;2.90;1.27;;;13.10;99.90;;;;;;4881759;29;20549;-71
2023/08/27 07:07:38;;;;;;;3.40;1.50;;;13.10;99.90;;;;;;4882726;29;20859;-70
2023/08/27 07:10:04;;;;;;;2.17;1.13;;;13.20;99.90;;;;;;4884362;29;20028;-70
2023/08/27 07:12:33;;;;;;;1.33;1.00;;;13.20;99.90;;;;;;4890932;29;20263;-70
2023/08/27 07:15:02;;;;;;;1.73;1.10;;;13.30;99.90;;;;;;4906399;29;20043;-68
2023/08/27 07:17:28;;;;;;;3.85;1.23;;;13.40;99.90;;;;;;4896703;29;20028;-69
2023/08/27 07:19:54;;;;;;;2.17;1.00;;;13.50;99.90;;;;;;4896077;29;20028;-69
2023/08/27 07:22:20;;;;;;;4.00;1.40;;;13.50;99.90;;;;;;4895578;29;20090;-69
2023/08/27 07:24:46;;;;;;;2.13;0.90;;;13.50;99.90;;;;;;4889473;29;20032;-69
2023/08/27 07:27:11;;;;;;;3.45;1.25;;;13.60;99.90;;;;;;4900560;29;20036;-69
2023/08/27 07:29:37;;;;;;;2.10;0.90;;;13.70;99.90;;;;;;4901695;29;20032;-68
2023/08/27 07:32:03;;;;;;;3.53;1.40;;;13.80;99.90;;;;;;4897171;29;20063;-68
2023/08/27 07:34:30;;;;;;;1.85;1.00;;;13.90;99.90;;;;;;4889730;29;20091;-68
2023/08/27 07:36:56;;;;;;;3.55;0.77;;;14.00;99.90;;;;;;4904659;29;20024;-68
2023/08/27 07:39:22;;;;;;;2.72;1.48;;;14.00;99.90;;;;;;4889175;29;20031;-68
2023/08/27 07:41:49;;;;;;;1.88;0.80;;;14.20;99.90;;;;;;4888511;29;20263;-69
2023/08/27 07:44:15;;;;;;;2.15;1.00;;;14.40;99.90;;;;;;4890109;29;21532;-68
2023/08/27 07:46:41;;;;;;;2.10;1.00;;;14.60;99.90;;;;;;4888193;29;20052;-68
2023/08/27 07:49:06;;;;;;;3.28;1.00;;;14.90;99.90;;;;;;4894084;29;20038;-68
2023/08/27 07:51:32;;;;;;;1.80;0.80;;;16.90;99.90;;;;;;4900760;29;20107;-70
2023/08/27 07:53:58;;;;;;;2.17;0.63;;;20.50;99.90;;;;;;4898300;29;20735;-70
2023/08/27 07:56:23;;;;;;;1.50;0.65;;;23.80;99.90;;;;;;4903564;29;20043;-70
2023/08/27 07:58:49;;;;;;;2.17;0.60;;;26.90;93.40;;;;;;4898686;29;20039;-74
2023/08/27 08:01:15;;;;;;;1.42;0.47;;;29.30;74.90;;;;;;4900382;29;20040;-70
2023/08/27 08:03:41;;;;;;;0.80;0.45;;;31.10;64.20;;;;;;4901390;29;20035;-70
2023/08/27 08:06:07;;;;;;;1.67;0.55;;;32.50;57.80;;;;;;4899645;29;20024;-71
2023/08/27 08:08:34;;;;;;;1.30;0.50;;;33.60;51.80;;;;;;4898835;29;20036;-69
2023/08/27 08:10:59;;;;;;;2.13;0.40;;;34.10;50.90;;;;;;4907877;29;20091;-69
2023/08/27 08:13:25;;;;;;;2.28;0.32;;;34.90;50.10;;;;;;4898855;29;20153;-70
2023/08/27 08:15:51;;;;;;;1.10;0.40;;;35.40;47.00;;;;;;4897936;29;20028;-71
2023/08/27 08:18:17;;;;;;;1.08;0.32;;;35.70;45.90;;;;;;4900982;29;20062;-70
2023/08/27 08:20:43;;;;;;;1.60;0.35;;;36.30;45.80;;;;;;4904616;29;20482;-71
2023/08/27 08:23:08;;;;;;;1.23;0.40;;;37.00;41.90;;;;;;4922295;29;20047;-71
2023/08/27 08:25:35;;;;;;;1.45;0.32;;;37.20;41.40;;;;;;4920099;29;20119;-70
2023/08/27 08:28:01;;;;;;;2.28;0.40;;;37.50;41.10;;;;;;4920490;29;20031;-70
2023/08/27 08:30:26;;;;;;;1.67;0.30;;;37.60;41.00;;;;;;4900936;29;20460;-70
2023/08/27 08:32:52;;;;;;;1.52;0.38;;;38.20;39.20;;;;;;4891320;29;20036;-70
2023/08/27 08:35:18;;;;;;;1.80;0.50;;;38.50;39.60;;;;;;4891208;29;20040;-70
2023/08/27 08:37:44;;;;;;;1.90;0.30;;;38.80;39.40;;;;;;4892336;29;20047;-70
2023/08/27 08:40:14;;;;;;;0.95;0.30;;;39.10;37.50;;;;;;4890064;29;20095;-71
2023/08/27 08:42:57;;;;;;;0.90;0.40;;;39.00;36.80;;;;;;4891075;29;20062;-70
2023/08/27 08:45:37;;;;;;;1.67;0.50;;;39.40;37.40;;;;;;4895898;29;20036;-70
2023/08/27 08:48:06;;;;;;;2.08;0.22;;;39.50;38.30;;;;;;4912842;29;20141;-70
2023/08/27 08:50:35;;;;;;;1.75;0.40;;;40.00;35.90;;;;;;4902110;29;20074;-70
2023/08/27 08:53:08;;;;;;;1.30;0.40;;;40.30;35.40;;;;;;4910424;29;20028;-67
2023/08/27 08:55:35;;;;;;;1.92;0.50;;;40.30;35.80;;;;;;4920482;29;20437;-70
2023/08/27 08:58:07;;;;;;;1.52;0.40;;;40.30;37.00;;;;;;4909997;29;20071;-68
2023/08/27 09:00:34;;;;;;;1.55;0.45;;;40.00;35.80;;;;;;4916713;29;20031;-69
2023/08/27 09:03:03;;;;;;;1.75;0.40;;;40.10;37.60;;;;;;4903701;29;20307;-69
2023/08/27 09:05:31;;;;;;;5.20;0.50;;;40.40;36.70;;;;;;4899134;29;20550;-70
2023/08/27 09:07:57;;;;;;;1.90;0.30;;;40.50;35.60;;;;;;4897926;29;20036;-70
2023/08/27 09:10:24;;;;;;;2.80;0.35;;;40.50;34.50;;;;;;4889300;29;20483;-69
2023/08/27 09:12:56;;;;;;;2.10;0.47;;;40.90;34.90;;;;;;4896496;29;20504;-71
2023/08/27 09:15:22;;;;;;;1.67;0.38;;;41.10;33.40;;;;;;4892097;29;20442;-68
2023/08/27 09:17:48;;;;;;;2.88;0.55;;;40.90;34.40;;;;;;4896182;29;20036;-67
2023/08/27 09:20:14;;;;;;;0.60;0.30;;;41.50;33.80;;;;;;4899322;29;20131;-67
2023/08/27 09:22:41;;;;;;;1.58;0.35;;;41.70;33.10;;;;;;4889904;29;20500;-68
2023/08/27 09:25:09;;;;;;;1.92;0.70;;;41.60;34.90;;;;;;4889458;29;20032;-67
2023/08/27 09:27:35;;;;;;;0.75;0.28;;;41.60;34.50;;;;;;4894660;29;20036;-67
2023/08/27 09:30:05;;;;;;;1.05;0.20;;;42.20;32.70;;;;;;4892082;29;20046;-67
2023/08/27 09:32:31;;;;;;;1.25;0.20;;;41.70;32.30;;;;;;4888766;29;20055;-67
2023/08/27 09:35:01;;;;;;;0.82;0.22;;;41.60;33.60;;;;;;4883768;29;20614;-67
2023/08/27 09:37:28;;;;;;;1.25;0.28;;;41.70;31.70;;;;;;4883787;29;20127;-68
2023/08/27 09:39:54;;;;;;;1.55;0.43;;;41.40;34.90;;;;;;4552535;29;9999790;-68
2023/08/27 09:42:22;;;;;;;1.38;0.50;;;41.60;32.10;;;;;;4885249;29;20036;-67
2023/08/27 09:44:54;;;;;;;1.25;0.30;;;41.50;33.40;;;;;;4886107;29;20468;-68
2023/08/27 09:47:35;;;;;;;0.50;0.20;;;41.50;34.70;;;;;;4892800;29;20123;-68
2023/08/27 09:50:06;;;;;;;2.58;0.30;;;41.90;32.80;;;;;;4894529;29;20040;-70
2023/08/27 09:52:32;;;;;;;2.42;0.30;;;42.40;32.50;;;;;;4892885;29;20020;-70
2023/08/27 09:54:58;;;;;;;0.60;0.30;;;41.50;33.60;;;;;;4889558;29;20564;-69
2023/08/27 09:57:23;;;;;;;2.50;0.40;;;41.60;31.50;;;;;;4894549;29;20039;-69
2023/08/27 09:59:49;;;;;;;1.65;0.40;;;41.90;32.30;;;;;;4893870;29;20411;-69
2023/08/27 10:02:16;;;;;;;2.03;0.32;;;42.50;33.40;;;;;;4899491;29;20043;-69
2023/08/27 10:04:53;;;;;;;1.77;0.32;;;42.50;32.00;;;;;;4898901;29;20051;-69
2023/08/27 10:07:19;;;;;;;1.75;0.30;;;42.40;31.90;;;;;;4900052;29;20055;-69
2023/08/27 10:09:50;;;;;;;0.40;0.28;;;42.20;31.00;;;;;;4899791;29;20039;-69
2023/08/27 10:12:16;;;;;;;1.10;0.20;;;42.20;32.40;;;;;;4901971;29;20035;-69
2023/08/27 10:14:44;;;;;;;1.20;0.30;;;41.10;32.20;;;;;;4909904;29;20031;-69
2023/08/27 10:17:11;;;;;;;0.95;0.35;;;39.80;33.60;;;;;;4893968;29;20403;-69
2023/08/27 10:19:37;;;;;;;1.10;0.28;;;38.50;36.10;;;;;;4900703;29;20655;-69
2023/08/27 10:22:03;;;;;;;2.47;0.38;;;38.50;38.60;;;;;;4900422;29;20222;-69
2023/08/27 10:24:30;;;;;;;0.90;0.20;;;39.70;36.30;;;;;;4897755;29;20472;-69
2023/08/27 10:27:00;;;;;;;0.55;0.20;;;40.70;33.90;;;;;;4897044;29;20032;-69
2023/08/27 10:29:27;;;;;;;1.90;0.30;;;39.70;32.60;;;;;;4893565;29;20175;-69
2023/08/27 10:31:53;;;;;;;2.03;0.28;;;38.70;34.90;;;;;;4895277;29;20032;-69
2023/08/27 10:34:23;;;;;;;1.75;0.30;;;37.80;36.10;;;;;;4895204;29;20563;-69
2023/08/27 10:36:51;;;;;;;1.37;0.30;;;38.20;35.00;;;;;;4886819;29;20557;-69
2023/08/27 10:39:20;;;;;;;1.38;0.40;;;37.30;36.80;;;;;;4895877;29;20024;-69
2023/08/27 10:41:46;;;;;;;1.50;0.20;;;36.80;37.20;;;;;;4897407;29;20020;-69
2023/08/27 10:44:20;;;;;;;3.20;0.35;;;36.40;35.70;;;;;;4893530;29;20059;-69
2023/08/27 10:47:08;;;;;;;1.08;0.30;;;36.90;38.20;;;;;;4893922;29;20058;-69
2023/08/27 10:49:38;;;;;;;1.38;0.38;;;38.80;37.70;;;;;;4896449;29;20051;-69
2023/08/27 10:52:22;;;;;;;0.77;0.37;;;39.40;33.10;;;;;;4896920;29;20462;-68
2023/08/27 10:54:57;;;;;;;1.92;0.25;;;37.20;34.70;;;;;;4892470;29;20357;-68
2023/08/27 10:57:23;;;;;;;1.35;0.28;;;34.90;39.50;;;;;;4906074;29;20464;-68
2023/08/27 10:59:51;;;;;;;1.25;0.50;;;33.90;40.00;;;;;;4898393;29;20043;-68
2023/08/27 11:02:17;;;;;;;0.90;0.30;;;34.40;38.50;;;;;;4898176;29;20024;-68
2023/08/27 11:04:48;;;;;;;0.43;0.17;;;35.00;40.80;;;;;;4897748;29;20446;-69
2023/08/27 11:07:22;;;;;;;;;;;35.20;41.50;;;;;;4913965;29;20102;-69
2023/08/27 11:09:54;;;;;;;0.82;0.30;;;36.60;37.80;;;;;;4897012;29;19914;-68
2023/08/27 11:12:24;;;;;;;0.55;0.20;;;36.40;36.90;;;;;;4901138;29;20039;-69
2023/08/27 11:14:51;;;;;;;0.70;0.30;;;36.00;39.40;;;;;;4902688;29;20028;-68
2023/08/27 11:17:27;;;;;;;1.05;0.35;;;35.70;37.80;;;;;;4903089;29;20294;-69
2023/08/27 11:19:54;;;;;;;0.90;0.20;;;35.90;37.40;;;;;;4899651;29;20544;-69
2023/08/27 11:22:21;;;;;;;0.98;0.30;;;36.30;38.10;;;;;;4899745;29;20558;-69
2023/08/27 11:24:49;;;;;;;0.57;0.28;;;37.10;39.20;;;;;;4900007;29;20036;-68
2023/08/27 11:27:16;;;;;;;1.67;0.20;;;38.10;37.70;;;;;;4899505;29;20025;-69
2023/08/27 11:29:47;;;;;;;0.57;0.22;;;37.30;37.40;;;;;;4900777;29;20072;-69
2023/08/27 11:32:14;;;;;;;1.27;0.40;;;36.30;39.00;;;;;;4904494;29;20031;-68
2023/08/27 11:34:41;;;;;;;1.88;0.30;;;34.50;42.20;;;;;;4897999;29;20427;-69
2023/08/27 11:37:08;;;;;;;1.40;0.40;;;33.00;43.10;;;;;;4892081;29;20075;-69
2023/08/27 11:39:35;;;;;;;0.70;0.40;;;32.00;45.70;;;;;;4890618;29;20539;-69
2023/08/27 11:42:01;;;;;;;1.48;0.50;;;31.00;46.00;;;;;;4894891;29;20032;-68
2023/08/27 11:44:27;;;;;;;1.20;0.30;;;30.00;46.20;;;;;;4890798;29;20575;-68
2023/08/27 11:47:01;;;;;;;0.68;0.30;;;29.00;46.80;;;;;;4894938;29;20132;-69
2023/08/27 11:49:28;;;;;;;1.08;0.40;;;28.50;48.20;;;;;;4893819;29;20829;-68
2023/08/27 11:51:58;;;;;;;1.42;0.30;;;27.40;48.70;;;;;;4896359;29;20489;-68
2023/08/27 11:54:30;;;;;;;1.13;0.50;;;26.70;52.20;;;;;;4891855;29;20028;-68
2023/08/27 11:56:57;;;;;;;1.55;0.20;;;25.80;51.70;;;;;;4896630;29;20050;-68
2023/08/27 11:59:24;;;;;;;1.38;0.40;;;25.10;56.10;;;;;;4898671;29;20024;-68
2023/08/27 12:01:51;;;;;;;2.25;0.50;;;24.60;57.00;;;;;;4908939;29;20465;-68
2023/08/27 12:04:17;;;;;;;2.00;0.50;;;25.10;62.60;;;;;;4898864;29;20487;-67
2023/08/27 12:06:56;;;;;;;1.67;0.45;;;25.10;59.70;;;;;;4904922;29;20036;-68
2023/08/27 12:09:27;;;;;;;1.92;0.40;;;25.30;67.10;;;;;;4906576;29;20036;-67
2023/08/27 12:11:53;;;;;;;1.38;0.60;;;25.30;61.10;;;;;;4907228;29;20463;-68
2023/08/27 12:14:26;;;;;;;1.55;0.50;;;25.50;63.70;;;;;;4904449;29;20043;-68
2023/08/27 12:16:53;;;;;;;0.60;0.30;;;25.70;63.10;;;;;;4906900;29;20032;-67
2023/08/27 12:19:21;;;;;;;1.60;0.47;;;26.60;62.40;;;;;;4907565;29;20417;-68
2023/08/27 12:21:55;;;;;;;1.50;0.40;;;27.70;60.80;;;;;;4917287;29;20392;-68
2023/08/27 12:24:42;;;;;;;1.40;0.30;;;27.80;58.10;;;;;;4899770;29;20339;-67
2023/08/27 12:27:09;;;;;;;1.17;0.40;;;27.80;54.00;;;;;;4896279;29;20098;-68
2023/08/27 12:29:39;;;;;;;1.73;0.45;;;27.20;56.30;;;;;;4906994;29;20111;-68
2023/08/27 12:32:08;;;;;;;3.00;0.73;;;27.20;59.60;;;;;;4904688;29;20115;-68
2023/08/27 12:34:39;;;;;;;4.72;0.60;;;27.50;63.30;;;;;;4899705;29;20047;-68
2023/08/27 12:37:05;;;;;;;2.22;0.77;;;27.80;60.20;;;;;;4906663;29;20028;-69
2023/08/27 12:39:32;;;;;;;0.77;0.38;;;28.30;66.30;;;;;;4898680;29;20120;-68
2023/08/27 12:41:59;;;;;;;3.08;0.95;;;28.40;56.60;;;;;;4903716;29;20035;-68
2023/08/27 12:44:25;;;;;;;1.23;0.45;;;27.90;59.00;;;;;;4904506;29;20143;-68